world map with AOT marked

AOT - Airport

This information may not be accurate or current and is not valid for navigation or flight planning. No warranty of fitness for any purpose is made or implied.

flag of Aosta Valleyflag of Italy

Donate via PayPal

Additional information is available on the NEW Great Circle Mapper

Location
City:  Aosta, Aosta Valley, Italy
Name:Corrado Gex
ICAO / IATA:LIMW / AOT

Details
Type:Airport (Aerodrome, Airfield)
Latitude:45°44'18"N (45.738456)
Longitude:7°22'07"E (7.368719)
Datum:WGS 1984
Elevation:1791 ft (546 m)
Runways:1
Longest:4088 × 98 ft (1246 × 30 m)

Time
Timezone:UTC+1 (DST+4)
Local Time:

Weather
METAR:LIMW  121550Z AUTO 08004KT 040V100 9999 OVC044/// 13/10 Q1026

Related Locations
Nearby:
Farthest:CHT: 12206 mi / 19644 km
Waitangi [Tuuta], CIT, NZ

Find:

   beyond  
but within

Other Information
Maps:
Sources:

  


 


Great Circle Mapper   Great Circle Mapper
Great Circle Mapper FAQ   Great Circle Mapper FAQ
  Karl's Home Page
KLSē   KLSē Home
   GC on Facebook
Airlines of the World   Airlines of the World
Donate via PayPal


Copyright © 2004-2018, Karl L. Swartz. All rights reserved.
All trademarks mentioned herein belong to their respective owners.

Please see credits for attribution and copyright information.

Karl Swartz <karl@kls2.com>
  Powered by FreeBSD
Valid HTML 4.01!
Labeled with ICRA
hCard Microformat
Geo Microformat